Terminal Aerodrome Forecast
Issued by NWS Mobile, AL

Home | Current Version | Previous Version | Text Only | Print | Product List | Glossary On
Versions: 1 2 3 4 5 6 7 8 9 10 11 12 13 14 15 16 17 18 19 20 21 22 23 24 25 26 27 28 29 30 31 32 33 34 35 36 37 38 39 40
466
FTUS44 KMOB 210520
TAFMOB
TAF
KMOB 210520Z 2106/2206 15003KT P6SM OVC005
      TEMPO 2108/2112 2SM TSRA BKN007CB
     FM211200 18009KT 2SM -TSRA BR OVC050CB
     FM211800 21010KT P6SM BKN030
     FM220000 17013KT 5SM BR OVC012 PROB30 2200/2206 3SM TSRA
      BKN012CB=

USA.gov is the U.S. government's official web portal to all federal, state and local government web resources and services.